Time;durP1;ratioP1;P1;durP2;ratioP2;P2;SDS_P1;SDS_P2;PMS_P1;PMS_P2;Temp;Humidity;BMP_temperature;BMP_pressure;BME280_temperature;BME280_humidity;BME280_pressure;Samples;Min_cycle;Max_cycle;Signal;HPM_P1;HPM_P2
2021/06/15 04:59:38;;;;;;;12.35;1.70;;;15.80;99.90;;;;;;5098786;28;20141;-82
2021/06/15 05:02:08;;;;;;;12.35;2.15;;;15.80;99.90;;;;;;5086791;28;20827;-81
2021/06/15 05:04:37;;;;;;;8.88;2.00;;;15.90;99.90;;;;;;5076524;28;20043;-80
2021/06/15 05:07:19;;;;;;;16.55;2.53;;;15.90;99.90;;;;;;5102251;28;20077;-80
2021/06/15 05:09:51;;;;;;;12.27;2.47;;;15.90;99.90;;;;;;5074899;28;20066;-80
2021/06/15 05:12:23;;;;;;;11.15;2.20;;;15.90;99.90;;;;;;5082749;28;20407;-80
2021/06/15 05:14:50;;;;;;;10.88;1.73;;;15.90;99.90;;;;;;5075669;28;20151;-80
2021/06/15 05:17:20;;;;;;;11.32;1.90;;;16.00;99.90;;;;;;5105257;28;20055;-80
2021/06/15 05:19:46;;;;;;;14.02;1.95;;;15.90;99.90;;;;;;5090052;28;20042;-80
2021/06/15 05:22:25;;;;;;;13.70;2.03;;;16.00;99.90;;;;;;5090189;28;20396;-80
2021/06/15 05:24:59;;;;;;;13.73;2.55;;;16.00;99.90;;;;;;5089606;28;20502;-80
2021/06/15 05:27:31;;;;;;;13.82;2.10;;;16.00;99.90;;;;;;5106357;28;20800;-81
2021/06/15 05:30:00;;;;;;;15.15;2.20;;;16.10;99.90;;;;;;5086006;28;20396;-79
2021/06/15 05:32:29;;;;;;;10.02;1.60;;;16.20;99.90;;;;;;5090584;28;20039;-80
2021/06/15 05:34:55;;;;;;;17.13;2.67;;;16.10;99.90;;;;;;5089112;28;20044;-80
2021/06/15 05:37:21;;;;;;;11.32;1.92;;;16.20;99.90;;;;;;5070875;28;20040;-79
2021/06/15 05:39:47;;;;;;;9.80;2.05;;;16.20;99.90;;;;;;5070530;28;20251;-79
2021/06/15 05:42:13;;;;;;;10.43;1.80;;;16.20;99.90;;;;;;5105525;28;20108;-80
2021/06/15 05:44:41;;;;;;;9.48;2.00;;;16.20;99.90;;;;;;5088045;28;20047;-79
2021/06/15 05:47:07;;;;;;;15.52;2.65;;;16.20;99.90;;;;;;5087436;28;20078;-80
2021/06/15 05:49:33;;;;;;;21.52;2.40;;;16.20;99.90;;;;;;5088120;28;20043;-80
2021/06/15 05:52:07;;;;;;;16.35;2.33;;;16.30;99.90;;;;;;5070050;28;20085;-80
2021/06/15 05:54:34;;;;;;;9.48;2.13;;;16.20;99.90;;;;;;5107411;28;20047;-80
2021/06/15 05:57:00;;;;;;;9.95;2.42;;;16.20;99.90;;;;;;5107049;28;20047;-80
2021/06/15 05:59:26;;;;;;;11.27;2.38;;;16.20;99.90;;;;;;5106414;28;20050;-80
2021/06/15 06:01:54;;;;;;;13.95;2.38;;;16.20;99.90;;;;;;5072797;28;20044;-79
2021/06/15 06:04:26;;;;;;;7.55;1.50;;;16.10;99.90;;;;;;5102245;28;20105;-79
2021/06/15 06:09:38;;;;;;;10.48;1.85;;;16.10;99.90;;;;;;5104437;28;20398;-80
2021/06/15 06:12:05;;;;;;;11.80;2.20;;;16.10;99.90;;;;;;5100368;28;20530;-80
2021/06/15 06:14:31;;;;;;;13.40;2.28;;;16.10;99.90;;;;;;5079232;28;20040;-80
2021/06/15 06:16:57;;;;;;;8.00;1.80;;;16.20;99.90;;;;;;5091754;28;20052;-79
2021/06/15 06:19:23;;;;;;;10.77;2.15;;;16.20;99.90;;;;;;5096553;28;20048;-79
2021/06/15 06:21:49;;;;;;;11.10;1.80;;;16.20;99.90;;;;;;5086663;28;20046;-80
2021/06/15 06:24:17;;;;;;;11.57;2.45;;;16.20;99.90;;;;;;5101564;28;20048;-79
2021/06/15 06:26:49;;;;;;;15.27;2.33;;;16.20;99.90;;;;;;5095946;28;20122;-80
2021/06/15 06:29:16;;;;;;;12.88;2.65;;;16.20;99.90;;;;;;5063017;28;20047;-80
2021/06/15 06:31:42;;;;;;;9.02;1.70;;;16.20;99.90;;;;;;5083768;28;20045;-79
2021/06/15 06:34:08;;;;;;;13.88;1.70;;;16.20;99.90;;;;;;5079805;28;20135;-79
2021/06/15 06:36:34;;;;;;;7.63;1.52;;;16.20;99.90;;;;;;5095873;27;20134;-80
2021/06/15 06:39:01;;;;;;;9.35;1.80;;;16.20;99.90;;;;;;5113057;28;20047;-79
2021/06/15 06:41:28;;;;;;;11.65;2.25;;;16.20;99.90;;;;;;5082700;28;20535;-80
2021/06/15 06:43:54;;;;;;;7.38;1.65;;;16.30;99.90;;;;;;5068792;28;20100;-80
2021/06/15 06:46:20;;;;;;;11.20;2.05;;;16.30;99.90;;;;;;5079856;28;20043;-80
2021/06/15 06:48:46;;;;;;;9.82;1.60;;;16.30;99.90;;;;;;5088010;28;20059;-79
2021/06/15 06:51:11;;;;;;;9.45;1.67;;;16.40;99.90;;;;;;5089588;28;20703;-80
2021/06/15 06:53:38;;;;;;;9.27;2.00;;;16.40;99.90;;;;;;5072920;28;20537;-80
2021/06/15 06:56:08;;;;;;;9.77;2.17;;;16.40;99.90;;;;;;5089501;28;20154;-80
2021/06/15 06:58:34;;;;;;;8.43;1.65;;;16.50;99.90;;;;;;5086573;28;20055;-80
2021/06/15 07:01:01;;;;;;;8.98;1.50;;;16.50;99.90;;;;;;5097757;28;20109;-79
2021/06/15 07:03:27;;;;;;;8.77;2.05;;;16.50;99.90;;;;;;5087811;28;20196;-80
2021/06/15 07:05:53;;;;;;;14.75;2.20;;;16.50;99.90;;;;;;5067993;28;20419;-80
2021/06/15 07:08:19;;;;;;;13.75;1.70;;;16.50;99.90;;;;;;5060115;28;20040;-80
2021/06/15 07:10:45;;;;;;;7.97;1.63;;;16.50;99.90;;;;;;5101817;28;20054;-79
2021/06/15 07:13:11;;;;;;;8.30;1.45;;;16.50;99.90;;;;;;5055368;28;20473;-80
2021/06/15 07:15:37;;;;;;;13.98;1.92;;;16.60;99.90;;;;;;5040047;28;20046;-80
2021/06/15 07:18:06;;;;;;;14.23;2.10;;;16.60;99.90;;;;;;5051605;28;20036;-80
2021/06/15 07:20:32;;;;;;;12.70;2.40;;;16.60;99.90;;;;;;5061931;28;20472;-80
2021/06/15 07:22:58;;;;;;;14.40;1.95;;;16.60;99.90;;;;;;5092244;28;20702;-80
2021/06/15 07:25:24;;;;;;;8.85;1.70;;;16.60;99.90;;;;;;5080860;28;20047;-80
2021/06/15 07:28:10;;;;;;;11.65;2.00;;;16.60;99.90;;;;;;5052046;28;20505;-80
2021/06/15 07:30:43;;;;;;;9.02;1.77;;;16.70;99.90;;;;;;5074296;28;20036;-80
2021/06/15 07:33:28;;;;;;;10.30;1.70;;;16.70;99.90;;;;;;5063222;28;20577;-80
2021/06/15 07:36:14;;;;;;;11.18;1.65;;;16.70;99.90;;;;;;5050694;28;20052;-80
2021/06/15 07:39:00;;;;;;;9.23;1.85;;;16.70;99.90;;;;;;5076043;28;20082;-79
2021/06/15 07:41:46;;;;;;;10.45;1.70;;;16.70;99.90;;;;;;5066172;28;20051;-80
2021/06/15 07:44:32;;;;;;;7.70;2.05;;;16.80;99.90;;;;;;5058095;28;20051;-80
2021/06/15 07:47:03;;;;;;;6.40;1.60;;;16.80;99.90;;;;;;5087740;28;20050;-80
2021/06/15 07:49:49;;;;;;;10.88;2.35;;;16.90;99.90;;;;;;5081286;28;20101;-80
2021/06/15 07:52:15;;;;;;;8.88;1.60;;;16.90;99.90;;;;;;5084881;28;20043;-80
2021/06/15 07:55:01;;;;;;;13.02;2.25;;;17.00;99.90;;;;;;5068350;28;20501;-80
2021/06/15 07:57:47;;;;;;;6.57;1.20;;;17.00;99.90;;;;;;5080153;28;20414;-80
2021/06/15 08:00:33;;;;;;;11.85;2.15;;;17.00;99.90;;;;;;5079365;28;20600;-80
2021/06/15 08:03:05;;;;;;;;;;;17.10;99.90;;;;;;5063431;28;20040;-80
2021/06/15 08:05:51;;;;;;;8.32;1.30;;;17.10;99.90;;;;;;5070353;28;19919;-80
2021/06/15 08:08:18;;;;;;;8.30;1.55;;;17.10;99.90;;;;;;5099282;28;20058;-80
2021/06/15 08:11:04;;;;;;;8.82;1.73;;;17.20;99.90;;;;;;5091034;28;20052;-80
2021/06/15 08:13:31;;;;;;;8.95;2.45;;;17.20;99.90;;;;;;5075936;28;20127;-80
2021/06/15 08:15:58;;;;;;;8.80;1.58;;;17.20;99.90;;;;;;5092992;28;20040;-80
2021/06/15 08:18:24;;;;;;;7.50;1.70;;;17.20;99.90;;;;;;5081237;28;20506;-80
2021/06/15 08:20:53;;;;;;;8.95;2.05;;;17.20;99.90;;;;;;5086545;28;20053;-80
2021/06/15 08:23:20;;;;;;;8.23;1.88;;;17.20;99.90;;;;;;5091245;28;20504;-80
2021/06/15 08:26:06;;;;;;;7.45;1.85;;;17.30;99.90;;;;;;5068634;28;20491;-80
2021/06/15 08:32:13;;;;;;;11.13;1.60;;;17.30;99.90;;;;;;5094255;28;20094;-80
2021/06/15 08:34:39;;;;;;;8.43;1.98;;;17.30;99.90;;;;;;5076616;28;20491;-80
2021/06/15 08:37:05;;;;;;;10.35;2.28;;;17.40;99.90;;;;;;5063832;28;20501;-80
2021/06/15 08:39:51;;;;;;;5.80;1.08;;;17.40;99.90;;;;;;5061190;28;20075;-80
2021/06/15 08:42:16;;;;;;;7.70;2.22;;;17.50;99.90;;;;;;5083632;28;20082;-80
2021/06/15 08:44:43;;;;;;;8.27;1.70;;;17.60;99.90;;;;;;5091914;28;20031;-80
2021/06/15 08:47:14;;;;;;;9.55;2.20;;;17.70;99.90;;;;;;5073079;28;20048;-80
2021/06/15 08:49:41;;;;;;;9.80;1.77;;;17.70;99.90;;;;;;5084138;28;20158;-80
2021/06/15 08:52:07;;;;;;;9.20;2.22;;;17.80;99.90;;;;;;5091002;28;20040;-80
2021/06/15 08:54:34;;;;;;;9.32;1.90;;;17.90;99.90;;;;;;5079618;28;20475;-80
2021/06/15 08:57:00;;;;;;;8.20;1.60;;;17.90;99.90;;;;;;5106437;28;20050;-80
2021/06/15 08:59:29;;;;;;;6.80;1.60;;;18.00;99.90;;;;;;5090626;28;20035;-80
2021/06/15 09:01:57;;;;;;;9.63;2.00;;;18.10;99.90;;;;;;5091723;28;20130;-80
2021/06/15 09:04:23;;;;;;;8.45;1.55;;;18.10;99.90;;;;;;5091457;28;20043;-80
2021/06/15 09:06:50;;;;;;;9.38;1.75;;;18.10;99.90;;;;;;5075538;28;20568;-80
2021/06/15 09:09:17;;;;;;;11.75;1.98;;;18.20;99.90;;;;;;5088341;28;20075;-79
2021/06/15 09:11:54;;;;;;;10.07;2.03;;;18.20;99.90;;;;;;5097591;28;20422;-80
2021/06/15 09:14:43;;;;;;;7.88;1.70;;;18.20;99.90;;;;;;5098761;28;20074;-80
2021/06/15 09:17:18;;;;;;;8.57;1.65;;;18.20;99.90;;;;;;5106175;28;20058;-80
2021/06/15 09:19:45;;;;;;;12.10;1.45;;;18.20;99.90;;;;;;5085662;28;20545;-80
2021/06/15 09:22:35;;;;;;;10.00;1.70;;;18.20;99.90;;;;;;5074946;28;20051;-80
2021/06/15 09:25:03;;;;;;;8.18;1.92;;;18.30;99.90;;;;;;5099966;28;20052;-80
2021/06/15 09:27:31;;;;;;;5.90;1.35;;;18.30;99.90;;;;;;5073899;28;20050;-80
2021/06/15 09:29:59;;;;;;;8.52;1.58;;;18.30;99.90;;;;;;5066326;28;20048;-80
2021/06/15 09:33:17;;;;;;;9.32;1.95;;;18.30;99.90;;;;;;5072913;28;20105;-80
2021/06/15 09:35:43;;;;;;;10.68;1.92;;;18.10;99.90;;;;;;5087544;28;20498;-80
2021/06/15 09:38:56;;;;;;;9.75;1.60;;;18.00;99.90;;;;;;5070718;28;20128;-80
2021/06/15 09:41:35;;;;;;;;;;;18.00;99.90;;;;;;5091541;28;20392;-80
2021/06/15 09:44:21;;;;;;;10.50;1.77;;;17.90;99.90;;;;;;5091229;28;19919;-80
2021/06/15 09:46:59;;;;;;;6.82;1.35;;;17.90;99.90;;;;;;5077592;28;20410;-80
2021/06/15 09:49:28;;;;;;;8.15;1.60;;;17.90;99.90;;;;;;5109161;28;20074;-80
2021/06/15 09:52:28;;;;;;;9.02;1.70;;;18.00;99.90;;;;;;5077479;28;20048;-79
2021/06/15 09:55:05;;;;;;;7.32;1.58;;;18.10;99.90;;;;;;5079382;28;20128;-79
2021/06/15 09:57:40;;;;;;;7.72;1.45;;;18.20;99.90;;;;;;5082626;28;20134;-80
2021/06/15 10:04:10;;;;;;;10.63;1.52;;;18.40;99.90;;;;;;5097344;28;20096;-80
2021/06/15 10:06:38;;;;;;;11.63;2.03;;;18.50;99.90;;;;;;5079772;28;20426;-80
2021/06/15 10:09:05;;;;;;;7.57;1.92;;;18.50;99.90;;;;;;5073281;28;20051;-80
2021/06/15 10:11:32;;;;;;;9.48;1.73;;;18.50;99.90;;;;;;5090252;28;20067;-80
2021/06/15 10:14:00;;;;;;;6.45;1.60;;;18.60;99.90;;;;;;5087360;28;20600;-80
2021/06/15 10:16:26;;;;;;;6.95;1.67;;;18.70;99.90;;;;;;5070876;28;20052;-80
2021/06/15 10:18:52;;;;;;;8.00;1.42;;;18.70;99.90;;;;;;5057639;27;20035;-80
2021/06/15 10:21:18;;;;;;;7.93;1.95;;;18.70;99.90;;;;;;5095437;28;20048;-80
2021/06/15 10:23:44;;;;;;;9.60;2.00;;;18.60;99.90;;;;;;5071661;28;20548;-80
2021/06/15 10:26:12;;;;;;;9.00;1.48;;;18.50;99.90;;;;;;5102203;27;20040;-80
2021/06/15 10:28:38;;;;;;;8.00;1.38;;;18.50;99.90;;;;;;5089519;28;20055;-80
2021/06/15 10:31:05;;;;;;;5.95;1.30;;;18.50;99.90;;;;;;5089444;28;20038;-80
2021/06/15 10:33:47;;;;;;;12.02;2.15;;;18.60;99.90;;;;;;5108067;28;20047;-80
2021/06/15 10:36:14;;;;;;;8.45;1.65;;;18.70;99.90;;;;;;5107847;28;20053;-80
2021/06/15 10:38:46;;;;;;;5.18;1.50;;;18.80;99.90;;;;;;5073106;28;20142;-80
2021/06/15 10:41:23;;;;;;;6.03;1.40;;;18.90;99.90;;;;;;5073775;28;20032;-80
2021/06/15 10:43:53;;;;;;;6.55;1.60;;;18.90;99.90;;;;;;5076533;28;20498;-80
2021/06/15 10:46:19;;;;;;;6.78;1.45;;;18.90;99.90;;;;;;5090610;28;20130;-80
2021/06/15 10:48:47;;;;;;;12.25;1.55;;;18.80;99.90;;;;;;5079714;28;20793;-80
2021/06/15 10:51:27;;;;;;;6.68;1.50;;;18.80;99.90;;;;;;5107512;28;20130;-81
2021/06/15 10:54:01;;;;;;;5.40;1.38;;;18.80;99.90;;;;;;5074105;28;20444;-81
2021/06/15 10:56:33;;;;;;;6.60;1.55;;;18.90;99.90;;;;;;5116931;28;20046;-81
2021/06/15 10:59:08;;;;;;;9.73;1.83;;;18.80;99.90;;;;;;5092535;28;20044;-80
2021/06/15 11:01:36;;;;;;;5.35;1.20;;;18.90;99.90;;;;;;5088590;28;20510;-80
2021/06/15 11:04:08;;;;;;;11.05;1.63;;;18.90;99.90;;;;;;5108762;28;20082;-81
2021/06/15 11:06:33;;;;;;;5.88;1.13;;;19.00;99.90;;;;;;5116490;28;20055;-80
2021/06/15 11:09:14;;;;;;;6.75;1.48;;;19.10;99.90;;;;;;5109600;27;20514;-80
2021/06/15 11:11:41;;;;;;;7.65;1.48;;;19.10;99.90;;;;;;5092483;28;20093;-80
2021/06/15 11:14:22;;;;;;;5.45;1.40;;;19.20;99.90;;;;;;5077936;27;20055;-80
2021/06/15 11:16:49;;;;;;;4.82;1.17;;;19.30;99.90;;;;;;5090044;28;20044;-80
2021/06/15 11:19:17;;;;;;;9.18;1.33;;;19.30;99.90;;;;;;5108595;28;20054;-79
2021/06/15 11:21:49;;;;;;;6.22;1.40;;;19.40;99.90;;;;;;5092961;28;20508;-80
2021/06/15 11:24:23;;;;;;;9.02;1.60;;;19.50;99.90;;;;;;5110456;28;20082;-79
2021/06/15 11:27:03;;;;;;;10.85;2.88;;;19.40;99.90;;;;;;5112892;27;20074;-80
2021/06/15 11:29:43;;;;;;;7.30;1.45;;;19.40;99.90;;;;;;5111083;27;20062;-80
2021/06/15 11:32:18;;;;;;;7.18;1.42;;;19.50;99.90;;;;;;5092127;28;20510;-79
2021/06/15 11:34:53;;;;;;;6.43;2.10;;;19.50;99.90;;;;;;5099151;27;20150;-80
2021/06/15 11:37:21;;;;;;;8.32;1.40;;;19.50;99.90;;;;;;5104146;27;20055;-80
2021/06/15 11:39:47;;;;;;;7.65;1.40;;;19.50;99.90;;;;;;5089365;28;20047;-80
2021/06/15 11:42:23;;;;;;;8.25;2.03;;;19.30;99.90;;;;;;5099565;28;20144;-80
2021/06/15 11:45:00;;;;;;;6.10;1.30;;;19.30;99.90;;;;;;5118646;27;20043;-80
2021/06/15 11:47:35;;;;;;;10.32;1.73;;;19.30;99.90;;;;;;5093606;28;20122;-80
2021/06/15 11:50:12;;;;;;;7.78;1.95;;;19.20;99.90;;;;;;5095694;28;20058;-80
2021/06/15 11:53:02;;;;;;;7.50;1.50;;;19.20;99.90;;;;;;5111408;28;20395;-80
2021/06/15 11:55:38;;;;;;;8.68;1.60;;;19.30;99.90;;;;;;5096113;27;20062;-81
2021/06/15 11:58:15;;;;;;;6.53;1.40;;;19.30;99.90;;;;;;5110046;28;20053;-80
2021/06/15 12:00:56;;;;;;;6.60;2.28;;;19.40;99.90;;;;;;5109726;28;20084;-80
2021/06/15 12:03:26;;;;;;;7.90;1.58;;;19.40;99.90;;;;;;5091678;28;20043;-80
2021/06/15 12:05:55;;;;;;;6.63;1.77;;;19.40;99.90;;;;;;5106980;28;20055;-80
2021/06/15 12:08:21;;;;;;;7.85;1.48;;;19.40;99.90;;;;;;5090417;28;20383;-80
2021/06/15 12:10:49;;;;;;;8.32;1.38;;;19.50;99.90;;;;;;5087801;28;20048;-80
2021/06/15 12:13:16;;;;;;;7.38;1.63;;;19.50;99.90;;;;;;5092182;28;20048;-80
2021/06/15 12:15:47;;;;;;;9.63;2.33;;;19.50;99.90;;;;;;5109043;28;20433;-80
2021/06/15 12:18:17;;;;;;;5.47;1.60;;;19.40;99.90;;;;;;5109191;28;20055;-80
2021/06/15 12:20:44;;;;;;;4.97;1.35;;;19.40;99.90;;;;;;5087693;28;20164;-80
2021/06/15 12:23:31;;;;;;;9.38;1.80;;;19.30;99.90;;;;;;5109158;28;20053;-79
2021/06/15 12:26:08;;;;;;;5.50;1.58;;;19.30;99.90;;;;;;5107469;28;20073;-80
2021/06/15 12:28:37;;;;;;;9.77;2.00;;;19.40;99.90;;;;;;5103445;28;20410;-79
2021/06/15 12:31:05;;;;;;;7.82;1.60;;;19.40;99.90;;;;;;5105828;28;20039;-80
2021/06/15 12:33:31;;;;;;;6.00;2.00;;;19.40;99.90;;;;;;5075214;28;20185;-80
2021/06/15 12:36:03;;;;;;;5.93;1.73;;;19.50;99.90;;;;;;5085987;28;20044;-80
2021/06/15 12:38:29;;;;;;;7.13;1.52;;;19.40;99.90;;;;;;5089584;28;20096;-80
2021/06/15 12:40:55;;;;;;;6.38;1.20;;;19.40;99.90;;;;;;5093898;28;20044;-80
2021/06/15 12:43:26;;;;;;;12.38;2.00;;;19.40;99.90;;;;;;5072548;28;20537;-80
2021/06/15 12:46:12;;;;;;;8.88;1.65;;;19.40;99.90;;;;;;5105169;28;20118;-80
2021/06/15 12:48:49;;;;;;;7.82;2.13;;;19.30;99.90;;;;;;5079554;28;20513;-79
2021/06/15 12:55:08;;;;;;;9.23;1.88;;;19.30;99.90;;;;;;5083621;28;20035;-80
2021/06/15 12:57:34;;;;;;;7.43;1.50;;;19.40;99.90;;;;;;5082553;28;20043;-79
2021/06/15 13:00:09;;;;;;;6.80;1.83;;;19.50;99.90;;;;;;5088159;28;20039;-80
2021/06/15 13:02:39;;;;;;;9.88;2.00;;;19.60;99.90;;;;;;5094075;28;20167;-80
2021/06/15 13:05:14;;;;;;;6.78;1.67;;;19.70;99.90;;;;;;5091693;28;20180;-80
2021/06/15 13:07:40;;;;;;;10.13;1.83;;;19.80;99.90;;;;;;5105253;28;20061;-80
2021/06/15 13:28:31;;;;;;;7.18;2.00;;;20.30;99.90;;;;;;5105303;28;20054;-80
2021/06/15 13:30:57;;;;;;;5.38;1.17;;;20.10;99.90;;;;;;5071337;28;20044;-81
2021/06/15 13:33:28;;;;;;;6.80;1.27;;;20.10;99.90;;;;;;5084309;27;20036;-80
2021/06/15 13:35:59;;;;;;;8.50;2.22;;;20.00;99.90;;;;;;5096654;28;20044;-81
2021/06/15 13:38:26;;;;;;;8.88;1.70;;;19.90;99.90;;;;;;5080148;28;20140;-79
2021/06/15 13:41:00;;;;;;;7.78;1.73;;;19.90;99.90;;;;;;5086816;28;20051;-80
2021/06/15 13:43:27;;;;;;;7.68;1.90;;;19.90;99.90;;;;;;5092417;28;20069;-79
2021/06/15 13:45:54;;;;;;;6.93;1.95;;;19.90;99.90;;;;;;5097564;27;20110;-79
2021/06/15 13:48:20;;;;;;;7.30;1.58;;;19.90;99.90;;;;;;5124787;27;20047;-80
2021/06/15 13:50:47;;;;;;;8.35;1.80;;;20.10;99.90;;;;;;5076267;28;20513;-80
2021/06/15 13:53:13;;;;;;;8.52;2.47;;;20.20;99.90;;;;;;5087111;28;20047;-80
2021/06/15 13:55:41;;;;;;;7.88;1.95;;;20.30;99.90;;;;;;5066918;27;20054;-79
2021/06/15 13:58:11;;;;;;;6.40;1.42;;;20.40;99.90;;;;;;5091851;28;20495;-80
2021/06/15 14:00:37;;;;;;;7.90;1.55;;;20.40;99.90;;;;;;5087119;27;20100;-80
2021/06/15 14:03:05;;;;;;;11.07;1.65;;;20.50;99.90;;;;;;5064246;28;20114;-79
2021/06/15 14:05:31;;;;;;;12.40;1.80;;;20.50;99.90;;;;;;5083760;28;20047;-79
2021/06/15 14:07:57;;;;;;;8.00;1.73;;;20.60;99.90;;;;;;5098771;28;20098;-80
2021/06/15 14:10:24;;;;;;;7.43;1.63;;;20.70;99.90;;;;;;5094538;28;20048;-79
2021/06/15 14:12:52;;;;;;;7.82;1.70;;;20.70;98.50;;;;;;5091272;28;20071;-80
2021/06/15 14:15:22;;;;;;;5.72;1.40;;;20.70;99.00;;;;;;5087845;28;20040;-80
2021/06/15 14:17:48;;;;;;;5.88;1.20;;;20.70;99.30;;;;;;5086462;28;20048;-80
2021/06/15 14:20:18;;;;;;;8.55;1.92;;;20.70;99.90;;;;;;5087400;28;20058;-80
2021/06/15 14:22:46;;;;;;;7.20;1.20;;;20.80;99.30;;;;;;5088658;28;20103;-80
2021/06/15 14:28:52;;;;;;;4.80;1.40;;;20.90;97.00;;;;;;5110509;27;20046;-80
2021/06/15 14:31:19;;;;;;;10.00;1.65;;;20.90;97.60;;;;;;5077612;28;20419;-80
2021/06/15 14:33:45;;;;;;;8.38;1.27;;;20.90;98.10;;;;;;5104872;28;20031;-80
2021/06/15 14:36:10;;;;;;;6.70;1.70;;;20.90;97.40;;;;;;5074258;28;20047;-80
2021/06/15 14:38:36;;;;;;;8.65;2.33;;;20.90;98.10;;;;;;5072513;28;20517;-80
2021/06/15 14:41:02;;;;;;;7.78;1.55;;;20.90;97.20;;;;;;5074897;28;20070;-80
2021/06/15 14:43:28;;;;;;;8.15;1.88;;;20.90;97.50;;;;;;5108451;28;20134;-80
2021/06/15 14:45:54;;;;;;;6.90;1.67;;;21.00;96.90;;;;;;5090188;28;20109;-80
2021/06/15 14:48:19;;;;;;;7.68;1.58;;;21.00;97.50;;;;;;5103952;28;20119;-80
2021/06/15 14:50:46;;;;;;;8.63;1.40;;;21.00;97.70;;;;;;5073435;28;20056;-80
2021/06/15 14:53:11;;;;;;;6.38;1.35;;;21.10;97.50;;;;;;5089999;28;20127;-80
2021/06/15 14:55:37;;;;;;;9.40;1.77;;;21.10;96.70;;;;;;5073374;28;20134;-80
2021/06/15 14:58:03;;;;;;;5.75;1.38;;;21.10;95.20;;;;;;5072496;28;20092;-80
2021/06/15 15:00:29;;;;;;;6.53;1.85;;;21.00;95.10;;;;;;5072715;28;20056;-80
2021/06/15 15:02:55;;;;;;;9.07;1.20;;;21.10;95.80;;;;;;5059915;28;20048;-80
2021/06/15 15:05:20;;;;;;;4.80;1.10;;;21.10;96.50;;;;;;5085204;28;20056;-79
2021/06/15 15:07:46;;;;;;;5.75;1.35;;;21.20;97.20;;;;;;5072710;28;20047;-79
2021/06/15 15:10:15;;;;;;;6.88;1.67;;;21.20;97.80;;;;;;5069935;28;20052;-80
2021/06/15 15:12:41;;;;;;;8.18;1.48;;;21.20;98.10;;;;;;5064155;28;20067;-79
2021/06/15 15:15:07;;;;;;;6.80;1.50;;;21.30;97.60;;;;;;5070413;28;20102;-79
2021/06/15 15:17:33;;;;;;;8.38;1.70;;;21.30;96.30;;;;;;5070742;28;20706;-79
2021/06/15 15:19:59;;;;;;;7.03;1.77;;;21.20;98.10;;;;;;5092422;28;20039;-79
2021/06/15 15:22:24;;;;;;;4.93;1.25;;;21.10;99.00;;;;;;5072069;28;20074;-79
2021/06/15 15:24:53;;;;;;;8.95;1.75;;;21.10;99.50;;;;;;5090497;28;20134;-79
2021/06/15 15:27:19;;;;;;;12.27;1.60;;;21.10;98.40;;;;;;5072789;28;20130;-80
2021/06/15 15:29:45;;;;;;;4.95;1.30;;;21.10;98.30;;;;;;5089850;28;20094;-80
2021/06/15 15:32:12;;;;;;;6.93;1.95;;;21.20;98.40;;;;;;5078473;28;20066;-81
2021/06/15 15:34:38;;;;;;;6.85;1.63;;;21.30;99.40;;;;;;5106444;28;20495;-80
2021/06/15 15:37:04;;;;;;;7.97;1.67;;;21.30;99.80;;;;;;5061000;28;20051;-80
2021/06/15 15:39:30;;;;;;;10.95;1.90;;;21.30;99.90;;;;;;5113864;28;20130;-80
2021/06/15 15:41:56;;;;;;;11.25;2.00;;;21.20;99.90;;;;;;5073043;28;20070;-80
2021/06/15 15:44:22;;;;;;;6.55;1.70;;;21.30;99.90;;;;;;5052763;28;20494;-80
2021/06/15 15:46:48;;;;;;;7.03;1.70;;;21.30;99.90;;;;;;5078439;28;20814;-80
2021/06/15 15:49:14;;;;;;;9.00;2.22;;;21.30;99.90;;;;;;5079836;28;20082;-80
2021/06/15 15:51:41;;;;;;;5.45;1.65;;;21.30;99.90;;;;;;5094203;28;20055;-80
2021/06/15 15:54:07;;;;;;;4.38;1.40;;;21.40;99.90;;;;;;5090248;28;20513;-81
2021/06/15 15:56:33;;;;;;;8.77;2.05;;;21.40;99.90;;;;;;5111652;28;20056;-80
2021/06/15 15:58:59;;;;;;;9.20;1.73;;;21.40;99.90;;;;;;5110349;28;20588;-80
2021/06/15 16:01:25;;;;;;;8.25;2.08;;;21.40;99.90;;;;;;5076766;28;20040;-80
2021/06/15 16:03:51;;;;;;;9.13;2.10;;;21.40;99.90;;;;;;5093375;28;20048;-80
2021/06/15 16:06:16;;;;;;;8.35;2.25;;;21.40;99.90;;;;;;5093295;28;20089;-80
2021/06/15 16:08:42;;;;;;;10.98;2.45;;;21.50;99.90;;;;;;5073860;28;20071;-80
2021/06/15 16:11:09;;;;;;;9.35;1.45;;;21.50;99.90;;;;;;5076680;28;20075;-80
2021/06/15 16:13:35;;;;;;;10.43;2.08;;;21.50;99.90;;;;;;5076584;28;20075;-80
2021/06/15 16:16:03;;;;;;;9.90;1.80;;;21.60;99.80;;;;;;5072783;28;20415;-80
2021/06/15 16:18:29;;;;;;;8.45;1.80;;;21.70;99.90;;;;;;5092098;28;20040;-80
2021/06/15 16:20:54;;;;;;;7.07;1.63;;;21.80;99.40;;;;;;5073739;28;20058;-80
2021/06/15 16:23:20;;;;;;;6.82;1.33;;;21.90;99.50;;;;;;5076690;28;20047;-80
2021/06/15 16:25:46;;;;;;;5.47;1.42;;;22.00;99.80;;;;;;5108728;27;20043;-80
2021/06/15 16:28:13;;;;;;;7.72;1.80;;;22.10;99.80;;;;;;5070662;28;20055;-81
2021/06/15 16:30:39;;;;;;;8.63;2.38;;;22.20;99.70;;;;;;5072094;28;20093;-81
2021/06/15 16:33:07;;;;;;;7.32;1.60;;;22.30;97.30;;;;;;5074616;28;20047;-80
2021/06/15 16:39:14;;;;;;;8.05;1.83;;;22.50;98.60;;;;;;5107991;27;20061;-78
2021/06/15 16:42:20;;;;;;;9.02;1.60;;;22.60;97.40;;;;;;5095966;28;20729;-78
2021/06/15 16:44:46;;;;;;;7.97;1.80;;;22.70;97.00;;;;;;5090643;28;20867;-78
2021/06/15 16:47:13;;;;;;;12.77;2.35;;;22.80;98.30;;;;;;5085983;28;20290;-79
2021/06/15 16:49:38;;;;;;;6.20;1.83;;;22.80;98.90;;;;;;5095298;27;20051;-79
2021/06/15 16:52:05;;;;;;;8.07;1.73;;;22.80;98.90;;;;;;5095587;28;20047;-79
2021/06/15 16:54:31;;;;;;;10.85;1.42;;;22.70;98.90;;;;;;5109776;28;20036;-79
2021/06/15 16:56:58;;;;;;;8.27;1.80;;;22.70;99.10;;;;;;5096347;28;20495;-79
2021/06/15 16:59:23;;;;;;;6.40;1.52;;;22.60;98.60;;;;;;5084819;28;20105;-79
2021/06/15 17:01:49;;;;;;;8.13;1.48;;;22.40;98.40;;;;;;5075092;27;20441;-80
2021/06/15 17:04:15;;;;;;;9.88;2.42;;;22.30;98.80;;;;;;5092595;27;20051;-80
2021/06/15 17:06:41;;;;;;;7.07;2.17;;;22.10;98.20;;;;;;5093906;28;20036;-80
2021/06/15 17:09:07;;;;;;;9.23;1.88;;;21.90;98.60;;;;;;5065168;28;20047;-78
2021/06/15 17:11:33;;;;;;;8.07;1.92;;;21.70;98.80;;;;;;5106790;28;20036;-78
2021/06/15 17:14:01;;;;;;;8.70;1.77;;;21.50;99.10;;;;;;5091284;28;20051;-78
2021/06/15 17:16:28;;;;;;;6.38;1.45;;;21.40;99.70;;;;;;5068782;28;20055;-78
2021/06/15 17:18:55;;;;;;;11.85;2.20;;;21.30;99.90;;;;;;5104311;28;20032;-78
2021/06/15 17:21:24;;;;;;;10.95;2.33;;;21.20;99.90;;;;;;5077110;28;20043;-78
2021/06/15 17:23:57;;;;;;;7.55;1.65;;;21.10;99.90;;;;;;5092349;28;20043;-78
2021/06/15 17:26:24;;;;;;;11.05;2.63;;;21.00;99.90;;;;;;5070358;28;20062;-79
2021/06/15 17:28:49;;;;;;;6.25;1.85;;;20.90;99.60;;;;;;5103180;27;20039;-78
2021/06/15 17:31:15;;;;;;;7.95;1.55;;;20.80;99.90;;;;;;5110017;27;20467;-76
2021/06/15 17:33:42;;;;;;;12.02;3.17;;;20.70;99.90;;;;;;5091313;28;20063;-78
2021/06/15 17:36:08;;;;;;;9.18;1.85;;;20.70;99.90;;;;;;5073949;28;20044;-78
2021/06/15 17:38:34;;;;;;;8.77;1.90;;;20.60;99.90;;;;;;5089367;28;20395;-77
2021/06/15 17:41:00;;;;;;;6.13;1.50;;;20.50;99.90;;;;;;5090660;28;20078;-77
2021/06/15 17:43:26;;;;;;;4.93;1.33;;;20.50;99.90;;;;;;5109058;28;20098;-78
2021/06/15 17:45:52;;;;;;;5.15;1.52;;;20.40;99.90;;;;;;5113678;27;20047;-77
2021/06/15 17:48:18;;;;;;;10.23;2.35;;;20.40;99.90;;;;;;5103227;28;20544;-78
2021/06/15 17:50:44;;;;;;;9.50;2.05;;;20.30;99.90;;;;;;5064826;28;20052;-77
2021/06/15 17:53:11;;;;;;;8.98;1.60;;;20.20;99.90;;;;;;5111249;27;20503;-78
2021/06/15 17:55:39;;;;;;;8.73;2.42;;;20.20;99.90;;;;;;5086531;28;20437;-78
2021/06/15 17:58:06;;;;;;;10.27;1.80;;;20.20;99.90;;;;;;5072480;28;20054;-79
2021/06/15 18:00:36;;;;;;;6.63;1.50;;;20.20;99.90;;;;;;5108978;27;20035;-78
2021/06/15 18:03:04;;;;;;;6.88;1.80;;;20.10;99.90;;;;;;5089981;28;20086;-79
2021/06/15 18:05:34;;;;;;;6.65;1.73;;;20.00;99.90;;;;;;5094263;28;20047;-78
2021/06/15 18:08:01;;;;;;;7.28;1.92;;;20.00;99.90;;;;;;5025968;28;20132;-78
2021/06/15 18:10:28;;;;;;;9.25;1.60;;;20.00;99.90;;;;;;5083580;28;20572;-78
2021/06/15 18:12:55;;;;;;;7.72;1.75;;;19.90;99.90;;;;;;5065556;28;20065;-78
2021/06/15 18:15:33;;;;;;;5.68;1.48;;;19.90;99.90;;;;;;5074370;28;20044;-78
2021/06/15 18:17:59;;;;;;;7.20;1.42;;;19.80;99.90;;;;;;5055197;28;20067;-79
2021/06/15 18:20:26;;;;;;;7.25;1.08;;;19.70;99.90;;;;;;5057721;28;20064;-78
2021/06/15 18:22:52;;;;;;;9.80;1.52;;;19.70;99.90;;;;;;5068514;28;20076;-79
2021/06/15 18:25:18;;;;;;;9.20;1.42;;;19.60;99.90;;;;;;5068049;28;20443;-79
2021/06/15 18:27:45;;;;;;;4.28;1.15;;;19.60;99.90;;;;;;5067930;28;20087;-78
2021/06/15 18:30:13;;;;;;;4.90;1.00;;;19.60;99.90;;;;;;5072613;28;20044;-79
2021/06/15 18:32:38;;;;;;;7.22;1.40;;;19.50;99.90;;;;;;5068062;28;20113;-78
2021/06/15 18:35:07;;;;;;;8.00;1.70;;;19.50;99.90;;;;;;5069014;28;20055;-79
2021/06/15 18:37:33;;;;;;;6.05;1.20;;;19.50;99.90;;;;;;5086276;28;20048;-79